Time;durP1;ratioP1;P1;durP2;ratioP2;P2;SDS_P1;SDS_P2;PMS_P1;PMS_P2;Temp;Humidity;BMP_temperature;BMP_pressure;BME280_temperature;BME280_humidity;BME280_pressure;Samples;Min_cycle;Max_cycle;Signal;HPM_P1;HPM_P2
2022/01/21 00:01:52;;;;;;;;;;;;;;;-144.99;72.71;52780.34;4995013;28;19981;-61
2022/01/21 00:04:18;;;;;;;;;;;;;;;-144.99;73.29;52721.22;4992550;28;20075;-60
2022/01/21 00:06:46;;;;;;;;;;;;;;;-144.99;73.32;52757.94;4984107;28;19987;-61
2022/01/21 00:09:15;;;;;;;;;;;;;;;-144.99;73.56;52709.00;4981138;28;19978;-60
2022/01/21 00:11:41;;;;;;;;;;;;;;;-144.99;73.68;52733.47;4986449;28;19980;-61
2022/01/21 00:14:10;;;;;;;;;;;;;;;-144.99;74.28;52721.22;4985865;28;19974;-61
2022/01/21 00:16:39;;;;;;;;;;;;;;;-144.99;74.78;52749.78;4979986;28;20539;-61
2022/01/21 00:19:14;;;;;;;;;;;;;;;-144.99;75.05;52745.69;4978471;28;20051;-60
2022/01/21 00:30:16;;;;;;;;;;;;;;;-144.99;78.17;52745.69;4984502;28;19971;-60
2022/01/21 00:32:43;;;;;;;;;;;;;;;-144.99;78.20;52731.44;4984251;28;19988;-61
2022/01/21 00:35:10;;;;;;;;;;;;;;;-144.99;78.35;52745.69;4982474;28;19964;-60
2022/01/21 00:37:37;;;;;;;;;;;;;;;-144.99;78.74;52757.94;4982274;28;19985;-61
2022/01/21 00:40:07;;;;;;;;;;;;;;;-144.99;78.79;52717.16;4982151;28;19990;-63
2022/01/21 00:42:51;;;;;;;;;;;;;;;-144.99;78.84;52717.16;4982596;28;19987;-62
2022/01/21 00:45:19;;;;;;;;;;;;;;;-144.99;79.07;52729.38;4980101;28;20066;-61
2022/01/21 00:47:46;;;;;;;;;;;;;;;-144.99;78.87;52764.03;4981956;28;19992;-61
2022/01/21 00:50:25;;;;;;;;;;;;;;;-144.99;78.79;52729.38;4985386;28;19965;-62
2022/01/21 00:52:51;;;;;;;;;;;;;;;-144.99;78.89;52774.22;4978953;28;20162;-62
2022/01/21 00:55:19;;;;;;;;;;;;;;;-144.99;78.87;52717.16;4982915;28;19970;-62
2022/01/21 00:57:46;;;;;;;;;;;;;;;-144.99;78.77;52725.31;4983038;28;19964;-61
2022/01/21 01:00:13;;;;;;;;;;;;;;;-144.99;79.17;52721.22;4983281;28;20262;-57
2022/01/21 01:02:53;;;;;;;;;;;;;;;-144.99;79.70;52741.63;4978275;28;19991;-58
2022/01/21 01:05:19;;;;;;;;;;;;;;;-144.99;79.48;52737.53;4982251;28;19976;-58
2022/01/21 01:07:46;;;;;;;;;;;;;;;-144.99;79.71;52702.88;4989333;28;19983;-57
2022/01/21 01:10:19;;;;;;;;;;;;;;;-144.99;80.34;52723.28;4979673;28;19974;-57
2022/01/21 01:13:00;;;;;;;;;;;;;;;-144.99;80.77;52729.38;4984868;28;19993;-58
2022/01/21 01:20:54;;;;;;;;;;;;;;;-144.99;81.77;52755.88;4977256;28;20011;-61
2022/01/21 01:23:29;;;;;;;;;;;;;;;-144.99;81.97;52721.22;4981926;28;19996;-62
2022/01/21 01:28:43;;;;;;;;;;;;;;;-144.99;84.38;52700.84;4976401;28;19984;-60
2022/01/21 01:31:09;;;;;;;;;;;;;;;-144.99;85.27;52753.84;4981153;28;19977;-58
2022/01/21 01:33:40;;;;;;;;;;;;;;;-144.99;85.48;52741.63;4974614;28;19989;-60
2022/01/21 01:36:08;;;;;;;;;;;;;;;-144.99;85.75;52717.16;4979307;28;20332;-58
2022/01/21 01:38:58;;;;;;;;;;;;;;;-144.99;86.04;52721.22;4976782;28;19973;-58
2022/01/21 01:41:29;;;;;;;;;;;;;;;-144.99;86.79;52737.53;4978451;28;19970;-59
2022/01/21 01:49:35;;;;;;;;;;;;;;;-144.99;86.25;52731.44;4977671;28;20027;-58
2022/01/21 01:52:02;;;;;;;;;;;;;;;-144.99;86.86;52729.38;4981080;28;20312;-59
2022/01/21 01:54:29;;;;;;;;;;;;;;;-144.99;87.86;52725.31;4980997;28;19987;-60
2022/01/21 01:56:57;;;;;;;;;;;;;;;-144.99;88.35;52745.69;4978713;28;20404;-60
2022/01/21 01:59:25;;;;;;;;;;;;;;;-144.99;88.72;52717.16;4979710;28;19977;-60
2022/01/21 02:01:53;;;;;;;;;;;;;;;-144.99;89.09;52725.31;4977778;28;19946;-61
2022/01/21 02:04:22;;;;;;;;;;;;;;;-144.99;89.84;52709.00;4980673;28;19978;-59
2022/01/21 02:06:49;;;;;;;;;;;;;;;-144.99;89.80;52733.47;4979239;28;20447;-63
2022/01/21 02:09:16;;;;;;;;;;;;;;;-144.99;90.04;52741.63;4981237;28;19975;-62
2022/01/21 02:11:42;;;;;;;;;;;;;;;-144.99;90.42;52766.09;4978170;28;20366;-63
2022/01/21 02:14:09;;;;;;;;;;;;;;;-144.99;91.16;52709.00;4978985;28;20027;-64
2022/01/21 02:16:45;;;;;;;;;;;;;;;-144.99;91.58;52743.66;4977668;28;19970;-60
2022/01/21 02:21:57;;;;;;;;;;;;;;;-144.99;91.96;52700.84;4974569;28;20189;-61
2022/01/21 02:24:31;;;;;;;;;;;;;;;-144.99;92.91;52713.09;4980821;28;20069;-60
2022/01/21 02:26:58;;;;;;;;;;;;;;;-144.99;92.63;52692.69;4987424;28;19987;-61
2022/01/21 02:29:29;;;;;;;;;;;;;;;-144.99;92.15;52721.22;4975331;28;19976;-60
2022/01/21 02:31:57;;;;;;;;;;;;;;;-144.99;92.65;52704.94;4980565;28;20000;-59
2022/01/21 02:34:26;;;;;;;;;;;;;;;-144.99;92.47;52733.47;4979450;28;19978;-60
2022/01/21 02:36:58;;;;;;;;;;;;;;;-144.99;92.96;52688.63;4979221;28;20481;-60
2022/01/21 02:39:24;;;;;;;;;;;;;;;-144.99;92.97;52711.03;4980362;28;20034;-60
2022/01/21 02:41:50;;;;;;;;;;;;;;;-144.99;93.78;52727.34;4982000;28;19973;-60
2022/01/21 02:44:18;;;;;;;;;;;;;;;-144.99;93.98;52721.22;4983105;28;19971;-60
2022/01/21 02:46:45;;;;;;;;;;;;;;;-144.99;94.08;52721.22;4982588;28;19993;-60
2022/01/21 02:49:12;;;;;;;;;;;;;;;-144.99;94.11;52717.16;4979972;28;19981;-60
2022/01/21 02:51:42;;;;;;;;;;;;;;;-144.99;93.91;52745.69;4980460;28;19976;-59
2022/01/21 02:54:09;;;;;;;;;;;;;;;-144.99;93.41;52721.22;4977965;28;19969;-60
2022/01/21 02:56:37;;;;;;;;;;;;;;;-144.99;93.07;52717.16;4981604;28;19977;-60
2022/01/21 02:59:04;;;;;;;;;;;;;;;-144.99;92.73;52749.78;4980210;28;20539;-60
2022/01/21 03:01:32;;;;;;;;;;;;;;;-144.99;92.31;52717.16;4977422;28;20067;-60
2022/01/21 03:04:10;;;;;;;;;;;;;;;-144.99;91.63;52692.69;4973871;28;19993;-60
2022/01/21 03:06:38;;;;;;;;;;;;;;;-144.99;91.21;52709.00;4981329;28;20402;-61
2022/01/21 03:09:05;;;;;;;;;;;;;;;-144.99;90.98;52721.22;4978417;28;19981;-61
2022/01/21 03:11:33;;;;;;;;;;;;;;;-144.99;90.79;52684.53;4982427;28;19977;-60
2022/01/21 03:13:59;;;;;;;;;;;;;;;-144.99;90.81;52725.31;4975644;28;20500;-60
2022/01/21 03:16:25;;;;;;;;;;;;;;;-144.99;90.52;52713.09;4974574;28;19981;-60
2022/01/21 03:18:54;;;;;;;;;;;;;;;-144.99;90.76;52680.47;4978450;28;20003;-61
2022/01/21 03:21:21;;;;;;;;;;;;;;;-144.99;90.58;52729.38;4979420;28;19972;-62
2022/01/21 03:23:55;;;;;;;;;;;;;;;-144.99;90.97;52704.94;4979245;28;20056;-61
2022/01/21 03:26:23;;;;;;;;;;;;;;;-144.99;90.99;52668.22;4982198;28;19978;-60
2022/01/21 03:28:59;;;;;;;;;;;;;;;-144.99;89.95;52692.69;4979929;28;19984;-61
2022/01/21 03:31:26;;;;;;;;;;;;;;;-144.99;89.44;52729.38;4982603;28;19979;-61
2022/01/21 03:33:52;;;;;;;;;;;;;;;-144.99;89.41;52766.09;4978944;28;19984;-60
2022/01/21 03:36:21;;;;;;;;;;;;;;;-144.99;89.44;52713.09;4984702;28;20065;-61
2022/01/21 03:38:47;;;;;;;;;;;;;;;-144.99;89.73;52684.53;4980994;28;19978;-62
2022/01/21 03:41:18;;;;;;;;;;;;;;;-144.99;89.42;52709.00;4981835;28;19984;-60
2022/01/21 03:43:44;;;;;;;;;;;;;;;-144.99;89.58;52684.53;4978747;28;19999;-61
2022/01/21 03:46:13;;;;;;;;;;;;;;;-144.99;89.21;52668.22;4982298;28;19975;-60
2022/01/21 03:48:46;;;;;;;;;;;;;;;-144.99;89.17;52700.84;4982069;28;19995;-61
2022/01/21 03:51:12;;;;;;;;;;;;;;;-144.99;88.90;52633.59;4978714;28;20029;-61
2022/01/21 03:53:46;;;;;;;;;;;;;;;-144.99;88.93;52692.69;4979984;28;20471;-61
2022/01/21 03:56:17;;;;;;;;;;;;;;;-144.99;88.86;52737.53;4981593;28;20078;-60
2022/01/21 03:58:44;;;;;;;;;;;;;;;-144.99;89.30;52729.38;4979447;28;19954;-61
2022/01/21 04:01:12;;;;;;;;;;;;;;;-144.99;89.86;52694.72;4979242;28;20443;-60
2022/01/21 04:03:38;;;;;;;;;;;;;;;-144.99;90.16;52745.69;4979868;28;19986;-58
2022/01/21 04:06:04;;;;;;;;;;;;;;;-144.99;89.79;52647.84;4977502;28;20030;-59
2022/01/21 04:08:31;;;;;;;;;;;;;;;-144.99;90.69;52704.94;4979416;28;20436;-58
2022/01/21 04:10:57;;;;;;;;;;;;;;;-144.99;90.46;52729.38;4976813;28;20432;-58
2022/01/21 04:13:26;;;;;;;;;;;;;;;-144.99;90.55;52690.66;4977310;28;19970;-58
2022/01/21 04:15:53;;;;;;;;;;;;;;;-144.99;91.04;52700.84;4982289;28;19945;-58
2022/01/21 04:18:23;;;;;;;;;;;;;;;-144.99;91.02;52686.59;4978106;28;19953;-58
2022/01/21 04:20:52;;;;;;;;;;;;;;;-144.99;91.36;52704.94;4977920;28;19974;-58
2022/01/21 04:23:20;;;;;;;;;;;;;;;-144.99;91.66;52704.94;4977837;28;19973;-59
2022/01/21 04:25:47;;;;;;;;;;;;;;;-144.99;91.75;52692.69;4988481;28;19989;-57
2022/01/21 04:28:14;;;;;;;;;;;;;;;-144.99;92.71;52672.31;4979579;28;20392;-61
2022/01/21 04:30:40;;;;;;;;;;;;;;;-144.99;93.14;52706.97;4977552;28;20431;-61
2022/01/21 04:33:07;;;;;;;;;;;;;;;-144.99;93.15;52692.69;4981066;28;19966;-61
2022/01/21 04:35:35;;;;;;;;;;;;;;;-144.99;93.49;52696.78;4980030;28;19944;-61
2022/01/21 04:38:13;;;;;;;;;;;;;;;-144.99;92.97;52704.94;4976806;28;20392;-61
2022/01/21 04:40:46;;;;;;;;;;;;;;;-144.99;92.85;52729.38;4981870;28;19940;-60
2022/01/21 04:48:44;;;;;;;;;;;;;;;-144.99;94.25;52700.84;4978360;28;19976;-62
2022/01/21 04:51:15;;;;;;;;;;;;;;;-144.99;94.72;52686.59;4977463;28;20651;-61
2022/01/21 04:53:43;;;;;;;;;;;;;;;-144.99;94.88;52682.50;4978222;28;20284;-62
2022/01/21 04:56:16;;;;;;;;;;;;;;;-144.99;94.69;52704.94;4979658;28;19934;-60
2022/01/21 04:58:43;;;;;;;;;;;;;;;-144.99;94.31;52709.00;4979423;28;20337;-60
2022/01/21 05:01:10;;;;;;;;;;;;;;;-144.99;94.42;52633.59;4977269;28;19934;-60
2022/01/21 05:03:41;;;;;;;;;;;;;;;-144.99;93.38;52717.16;4978117;28;20364;-60
2022/01/21 05:06:12;;;;;;;;;;;;;;;-144.99;92.64;52676.38;4980413;28;19981;-61
2022/01/21 05:08:44;;;;;;;;;;;;;;;-144.99;91.18;52660.09;4979777;28;19933;-62
2022/01/21 05:11:13;;;;;;;;;;;;;;;-144.99;90.38;52709.00;4980856;28;20458;-62
2022/01/21 05:13:45;;;;;;;;;;;;;;;-144.99;88.47;52702.88;4976012;28;19926;-62
2022/01/21 05:19:17;;;;;;;;;;;;;;;-144.99;86.46;52692.69;4977872;28;20051;-63
2022/01/21 05:21:45;;;;;;;;;;;;;;;-144.99;86.38;52696.78;4977289;28;19926;-61
2022/01/21 05:24:11;;;;;;;;;;;;;;;-144.99;92.87;52696.78;4980325;28;20357;-62
2022/01/21 05:26:40;;;;;;;;;;;;;;;-144.99;91.44;52670.28;4986173;28;19926;-63
2022/01/21 05:29:07;;;;;;;;;;;;;;;-144.99;88.55;52698.81;4975971;28;20005;-65
2022/01/21 05:31:34;;;;;;;;;;;;;;;-144.99;94.82;52688.63;4976621;28;19956;-64
2022/01/21 05:34:00;;;;;;;;;;;;;;;-144.99;100.00;52688.63;4976158;28;19933;-64
2022/01/21 05:36:27;;;;;;;;;;;;;;;-144.99;93.81;52696.78;4983331;28;19941;-64
2022/01/21 05:38:55;;;;;;;;;;;;;;;-144.99;92.98;52668.22;4975820;28;20380;-63
2022/01/21 05:41:23;;;;;;;;;;;;;;;-144.99;92.15;52680.47;4975575;28;19997;-63
2022/01/21 05:43:50;;;;;;;;;;;;;;;-144.99;91.25;52688.63;4979996;28;20210;-63
2022/01/21 05:46:34;;;;;;;;;;;;;;;-144.99;88.33;52690.66;4978335;28;19956;-67
2022/01/21 05:49:01;;;;;;;;;;;;;;;-144.99;89.52;52688.63;5017927;22;19939;-69
2022/01/21 05:51:27;;;;;;;;;;;;;;;-144.99;88.90;52700.84;5035639;28;19929;-69
2022/01/21 05:53:55;;;;;;;;;;;;;;;-144.99;86.23;52684.53;5015482;28;19926;-73
2022/01/21 05:56:24;;;;;;;;;;;;;;;-144.99;81.10;52696.78;5014119;28;19940;-72
2022/01/21 05:58:50;;;;;;;;;;;;;;;-144.99;80.40;52660.09;5003830;28;19971;-73
2022/01/21 06:01:17;;;;;;;;;;;;;;;-144.99;80.48;52684.53;5002050;28;20016;-72
2022/01/21 06:03:43;;;;;;;;;;;;;;;-144.99;80.34;52692.69;4992894;28;19925;-72
2022/01/21 06:06:12;;;;;;;;;;;;;;;-144.99;80.17;52664.16;4992796;28;19926;-74
2022/01/21 06:08:38;;;;;;;;;;;;;;;-144.99;79.66;52717.16;4985027;28;19926;-74
2022/01/21 06:11:06;;;;;;;;;;;;;;;-144.99;79.36;52664.16;4296601;28;10000916;-74
2022/01/21 06:13:34;;;;;;;;;;;;;;;-144.99;79.30;52692.69;4989357;28;19951;-73
2022/01/21 06:16:00;;;;;;;;;;;;;;;-144.99;78.94;52704.94;4991338;28;20004;-72
2022/01/21 06:18:27;;;;;;;;;;;;;;;-144.99;78.31;52656.00;4987421;28;20302;-73
2022/01/21 06:20:54;;;;;;;;;;;;;;;-144.99;78.08;52698.81;5000515;28;19954;-73
2022/01/21 06:23:20;;;;;;;;;;;;;;;-144.99;78.03;52709.00;5001634;28;20290;-72
2022/01/21 06:25:46;;;;;;;;;;;;;;;-144.99;77.74;52698.81;5007197;28;19925;-72
2022/01/21 06:28:14;;;;;;;;;;;;;;;-144.99;77.36;52686.59;4986510;28;19957;-72
2022/01/21 06:30:41;;;;;;;;;;;;;;;-144.99;76.85;52709.00;4981669;28;20020;-73
2022/01/21 06:33:09;;;;;;;;;;;;;;;-144.99;76.70;52733.47;4989262;28;19965;-74
2022/01/21 06:35:35;;;;;;;;;;;;;;;-144.99;76.96;52709.00;4989024;28;20339;-74
2022/01/21 06:38:01;;;;;;;;;;;;;;;-144.99;77.22;52676.38;4989845;28;19953;-73
2022/01/21 06:40:28;;;;;;;;;;;;;;;-144.99;77.35;52717.16;4977936;28;20219;-72
2022/01/21 06:43:00;;;;;;;;;;;;;;;-144.99;77.72;52688.63;4989778;28;19969;-74
2022/01/21 06:45:28;;;;;;;;;;;;;;;-144.99;77.81;52696.78;4990588;28;20205;-73
2022/01/21 06:47:54;;;;;;;;;;;;;;;-144.99;77.66;52717.16;4989248;28;19992;-72
2022/01/21 06:50:20;;;;;;;;;;;;;;;-144.99;77.85;52711.03;4990428;28;19952;-73
2022/01/21 06:52:47;;;;;;;;;;;;;;;-144.99;78.11;52704.94;4990293;28;20469;-73
2022/01/21 06:55:13;;;;;;;;;;;;;;;-144.99;77.93;52711.03;4985992;28;19957;-72
2022/01/21 06:57:40;;;;;;;;;;;;;;;-144.99;78.04;52704.94;4998105;28;19998;-72
2022/01/21 07:00:07;;;;;;;;;;;;;;;-144.99;78.59;52745.69;5001580;28;20039;-72
2022/01/21 07:02:35;;;;;;;;;;;;;;;-144.99;78.75;52680.47;4992844;28;19997;-73
2022/01/21 07:05:02;;;;;;;;;;;;;;;-144.99;78.96;52717.16;4994249;28;19960;-73
2022/01/21 07:07:28;;;;;;;;;;;;;;;-144.99;78.78;52700.84;4994460;28;19956;-72
2022/01/21 07:09:56;;;;;;;;;;;;;;;-144.99;79.11;52684.53;4992402;28;19977;-72
2022/01/21 07:12:22;;;;;;;;;;;;;;;-144.99;79.35;52688.63;4981345;28;20001;-70
2022/01/21 07:14:48;;;;;;;;;;;;;;;-144.99;79.29;52684.53;4993049;28;19965;-71
2022/01/21 07:17:15;;;;;;;;;;;;;;;-144.99;79.41;52729.38;4993444;28;20440;-70
2022/01/21 07:19:42;;;;;;;;;;;;;;;-144.99;79.65;52719.19;4981450;28;19969;-70
2022/01/21 07:22:09;;;;;;;;;;;;;;;-144.99;79.99;52688.63;4993840;28;20468;-69
2022/01/21 07:24:35;;;;;;;;;;;;;;;-144.99;80.10;52656.00;5000210;28;19971;-69
2022/01/21 07:27:01;;;;;;;;;;;;;;;-144.99;80.99;52704.94;4996923;28;19958;-71
2022/01/21 07:29:28;;;;;;;;;;;;;;;-144.99;81.05;52684.53;4993551;28;20459;-70
2022/01/21 07:31:54;;;;;;;;;;;;;;;-144.99;81.49;52700.84;4982940;28;20557;-70
2022/01/21 07:34:21;;;;;;;;;;;;;;;-144.99;81.67;52684.53;4993417;28;19971;-70
2022/01/21 07:36:49;;;;;;;;;;;;;;;-144.99;81.65;52690.66;4999902;28;20060;-71
2022/01/21 07:39:15;;;;;;;;;;;;;;;-144.99;81.69;52713.09;4992669;28;20263;-70
2022/01/21 07:41:42;;;;;;;;;;;;;;;-144.99;81.68;52713.09;4990616;28;19975;-71
2022/01/21 07:44:08;;;;;;;;;;;;;;;-144.99;81.80;52688.63;4992868;28;19997;-70
2022/01/21 07:46:35;;;;;;;;;;;;;;;-144.99;81.35;52704.94;4994435;28;19958;-69
2022/01/21 07:49:02;;;;;;;;;;;;;;;-144.99;80.93;52668.22;4993019;28;20018;-68
2022/01/21 07:51:28;;;;;;;;;;;;;;;-144.99;79.99;52680.47;4978393;28;19967;-69
2022/01/21 07:53:56;;;;;;;;;;;;;;;-144.99;79.37;52696.78;4988833;28;19996;-68
2022/01/21 07:56:23;;;;;;;;;;;;;;;-144.99;77.37;52684.53;4996048;28;20246;-69
2022/01/21 07:58:49;;;;;;;;;;;;;;;-144.99;76.98;52672.31;5005764;28;19975;-68
2022/01/21 08:01:16;;;;;;;;;;;;;;;-144.99;75.21;52704.94;4991824;28;19952;-68
2022/01/21 08:03:42;;;;;;;;;;;;;;;-144.99;73.06;52656.00;4992084;28;19988;-69
2022/01/21 08:06:09;;;;;;;;;;;;;;;-144.99;72.87;52656.00;4992402;28;20424;-69
2022/01/21 08:08:36;;;;;;;;;;;;;;;-144.99;72.42;52684.53;4992865;28;19968;-71
2022/01/21 08:11:04;;;;;;;;;;;;;;;-144.99;71.96;52709.00;4985233;28;20063;-72
2022/01/21 08:13:30;;;;;;;;;;;;;;;-144.99;71.08;52684.53;5000347;28;20035;-72
2022/01/21 08:15:57;;;;;;;;;;;;;;;-144.99;70.60;52717.16;5010509;28;19952;-71
2022/01/21 08:18:23;;;;;;;;;;;;;;;-144.99;70.83;52668.22;5008891;28;19955;-72
2022/01/21 08:20:49;;;;;;;;;;;;;;;-144.99;71.17;52700.84;5004561;28;19955;-72
2022/01/21 08:23:16;;;;;;;;;;;;;;;-144.99;70.84;52680.47;4993578;28;19966;-70
2022/01/21 08:25:42;;;;;;;;;;;;;;;-144.99;70.16;52676.38;5007626;28;19969;-72
2022/01/21 08:28:10;;;;;;;;;;;;;;;-144.99;68.96;52696.78;4996628;28;20246;-70
2022/01/21 08:30:38;;;;;;;;;;;;;;;-144.99;68.18;52680.47;4989297;28;19977;-70
2022/01/21 08:33:04;;;;;;;;;;;;;;;-144.99;67.57;52692.69;4990879;28;20022;-71
2022/01/21 08:35:31;;;;;;;;;;;;;;;-144.99;67.21;52702.88;4996196;28;20066;-70
2022/01/21 08:37:58;;;;;;;;;;;;;;;-144.99;67.21;52676.38;4994575;28;19970;-71
2022/01/21 08:40:25;;;;;;;;;;;;;;;-144.99;66.48;52635.63;4991272;28;20005;-71
2022/01/21 08:42:52;;;;;;;;;;;;;;;-144.99;65.62;52656.00;4984842;28;20383;-70
2022/01/21 08:45:20;;;;;;;;;;;;;;;-144.99;64.57;52680.47;4992241;28;20005;-71
2022/01/21 08:47:46;;;;;;;;;;;;;;;-144.99;62.97;52651.94;4991958;28;19978;-73
2022/01/21 08:50:15;;;;;;;;;;;;;;;-144.99;61.62;52676.38;4991252;28;19968;-70
2022/01/21 08:52:42;;;;;;;;;;;;;;;-144.99;59.68;52692.69;4991343;28;19978;-71
2022/01/21 08:55:09;;;;;;;;;;;;;;;-144.99;58.23;52643.78;4991727;28;19939;-72
2022/01/21 08:57:37;;;;;;;;;;;;;;;-144.99;56.56;52656.00;4991659;28;19943;-72
2022/01/21 09:00:04;;;;;;;;;;;;;;;-144.99;56.34;52633.59;4991202;28;19957;-70
2022/01/21 09:02:32;;;;;;;;;;;;;;;-144.99;55.29;52666.19;4978208;28;19975;-71
2022/01/21 09:04:58;;;;;;;;;;;;;;;-144.99;54.12;52635.63;4990608;28;19948;-71
2022/01/21 09:07:24;;;;;;;;;;;;;;;-144.99;53.28;52668.22;4991239;28;19960;-71
2022/01/21 09:09:51;;;;;;;;;;;;;;;-144.99;52.88;52635.63;4991123;28;19971;-71
2022/01/21 09:12:17;;;;;;;;;;;;;;;-144.99;51.92;52647.84;4980261;28;19982;-72
2022/01/21 09:14:44;;;;;;;;;;;;;;;-144.99;51.54;52660.09;4990778;28;20383;-71
2022/01/21 09:17:10;;;;;;;;;;;;;;;-144.99;51.00;52656.00;4991903;28;19954;-71
2022/01/21 09:19:38;;;;;;;;;;;;;;;-144.99;50.40;52647.84;4990971;28;20012;-72
2022/01/21 09:22:05;;;;;;;;;;;;;;;-144.99;49.83;52647.84;4982041;28;19969;-71
2022/01/21 09:24:33;;;;;;;;;;;;;;;-144.99;49.44;52651.94;4991473;28;19987;-71
2022/01/21 09:26:59;;;;;;;;;;;;;;;-144.99;48.46;52619.31;5001961;28;20393;-73
2022/01/21 09:29:26;;;;;;;;;;;;;;;-144.99;47.98;52607.09;4997971;28;19940;-71
2022/01/21 09:31:52;;;;;;;;;;;;;;;-144.99;47.65;52651.94;4983256;28;19925;-71
2022/01/21 09:34:19;;;;;;;;;;;;;;;-144.99;46.96;52566.31;4990705;28;20326;-71
2022/01/21 09:36:47;;;;;;;;;;;;;;;-144.99;46.60;52594.84;4997992;28;20397;-72
2022/01/21 09:39:14;;;;;;;;;;;;;;;-144.99;45.52;52582.63;4991985;28;19937;-71
2022/01/21 09:41:42;;;;;;;;;;;;;;;-144.99;45.36;52603.00;4990983;28;19929;-71
2022/01/21 09:44:12;;;;;;;;;;;;;;;-144.99;44.79;52623.38;4991496;28;20609;-71
2022/01/21 09:46:42;;;;;;;;;;;;;;;-144.99;44.66;52594.84;4992647;28;20025;-71
2022/01/21 09:49:20;;;;;;;;;;;;;;;-144.99;44.32;52578.53;4991162;28;19940;-71
2022/01/21 09:51:50;;;;;;;;;;;;;;;-144.99;45.16;52596.88;4992259;28;19930;-71
2022/01/21 09:54:16;;;;;;;;;;;;;;;-144.99;44.64;52605.03;4999631;28;19975;-71
2022/01/21 09:56:45;;;;;;;;;;;;;;;-144.99;43.96;52543.91;5010819;28;19939;-70
2022/01/21 09:59:12;;;;;;;;;;;;;;;-144.99;42.87;52609.13;5009527;28;20189;-72
2022/01/21 10:01:39;;;;;;;;;;;;;;;-144.99;44.07;52570.38;4989728;28;19926;-72
2022/01/21 10:04:05;;;;;;;;;;;;;;;-144.99;43.62;52570.38;4992029;28;19930;-62
2022/01/21 10:06:33;;;;;;;;;;;;;;;-144.99;42.73;52562.25;4991240;28;19930;-65
2022/01/21 10:09:02;;;;;;;;;;;;;;;-144.99;42.71;52631.53;4992738;28;19929;-71
2022/01/21 10:11:29;;;;;;;;;;;;;;;-144.99;43.02;52594.84;4992597;28;19969;-66
2022/01/21 10:13:55;;;;;;;;;;;;;;;-144.99;43.77;52619.31;4981968;28;19989;-67
2022/01/21 10:16:22;;;;;;;;;;;;;;;-144.99;44.76;52615.25;4995712;28;19977;-70
2022/01/21 10:19:02;;;;;;;7.88;3.30;;;;;;;-144.99;46.61;52670.28;4997230;28;24771;-70
2022/01/21 10:21:31;;;;;;;264.40;236.67;;;;;;;-144.99;47.05;52656.00;4996301;28;20236;-67
2022/01/21 10:24:07;;;;;;;554.27;282.83;;;;;;;-144.99;48.34;52627.47;4992170;28;20294;-64
2022/01/21 10:26:33;;;;;;;514.85;200.88;;;;;;;-144.99;50.53;52686.59;5001081;28;20760;-64
2022/01/21 10:29:00;;;;;;;10.13;4.43;;;;;;;-144.99;51.79;52684.53;4996304;28;20761;-65
2022/01/21 10:31:28;;;;;;;460.10;161.50;;;;;;;-144.99;52.86;52672.31;4997486;28;20210;-64
2022/01/21 10:33:59;;;;;;;27.67;25.17;;;;;;;-144.99;53.02;52658.03;4999577;28;20232;-65
2022/01/21 10:36:29;;;;;;;16.33;13.55;;;;;;;-144.99;52.79;52651.94;5005970;28;20823;-65
2022/01/21 10:39:05;;;;;;;13.75;10.23;;;;;;;-144.99;51.23;52625.44;4998868;28;20753;-66
2022/01/21 10:41:35;;;;;;;15.45;13.68;;;;;;;-144.99;49.39;52590.78;4981946;28;20755;-63
2022/01/21 10:44:07;;;;;;;14.30;12.60;;;;;;;-144.99;47.63;52525.56;4997105;28;20231;-67
2022/01/21 10:46:34;;;;;;;13.32;11.98;;;;;;;-144.99;45.58;52623.38;4996170;28;20243;-64
2022/01/21 10:49:04;;;;;;;32.42;29.98;;;;;;;-144.99;44.31;52529.63;4992537;28;20219;-64
2022/01/21 10:51:33;;;;;;;14.43;11.32;;;;;;;-144.99;42.47;52537.78;4979114;28;20220;-65
2022/01/21 10:54:14;;;;;;;14.05;12.35;;;;;;;-144.99;41.10;52509.25;4990346;28;20239;-64
2022/01/21 10:56:44;;;;;;;44.85;41.33;;;;;;;-144.99;40.62;52556.13;5002772;28;20211;-65
2022/01/21 10:59:11;;;;;;;44.03;41.42;;;;;;;-144.99;39.87;52505.16;4989315;28;20208;-64
2022/01/21 11:01:38;;;;;;;12.93;11.63;;;;;;;-144.99;40.09;52521.47;4989232;28;20700;-65
2022/01/21 11:04:09;;;;;;;15.35;13.80;;;;;;;-144.99;40.27;52547.97;4989215;28;20211;-65
2022/01/21 11:06:48;;;;;;;16.45;14.85;;;;;;;-144.99;40.50;52558.16;4989039;28;20294;-64
2022/01/21 11:09:21;;;;;;;13.63;11.80;;;;;;;-144.99;41.62;52550.00;4990353;28;20714;-64
2022/01/21 11:11:50;;;;;;;13.50;11.73;;;;;;;-144.99;42.20;52590.78;4993127;28;20645;-64
2022/01/21 11:14:19;;;;;;;11.23;8.38;;;;;;;-144.99;43.15;52574.47;4995888;28;20219;-66
2022/01/21 11:16:47;;;;;;;11.95;9.15;;;;;;;-144.99;43.64;52550.00;4996797;28;20219;-71
2022/01/21 11:19:16;;;;;;;13.23;11.65;;;;;;;-144.99;44.12;52596.88;4995499;28;20204;-68
2022/01/21 11:21:49;;;;;;;15.15;13.52;;;;;;;-144.99;45.53;52603.00;4990136;28;20223;-68
2022/01/21 11:24:19;;;;;;;9.00;5.82;;;;;;;-144.99;46.68;52600.97;4988286;28;20745;-72
2022/01/21 11:27:07;;;;;;;10.75;8.23;;;;;;;-144.99;49.09;52627.47;4998814;28;20662;-69
2022/01/21 11:29:35;;;;;;;9.90;7.72;;;;;;;-144.99;51.08;52594.84;4989103;28;20243;-72
2022/01/21 11:32:03;;;;;;;12.25;9.65;;;;;;;-144.99;52.07;52619.31;4982464;28;20775;-71
2022/01/21 11:34:30;;;;;;;8.38;6.38;;;;;;;-144.99;54.17;52611.16;4983849;28;20924;-71
2022/01/21 11:36:57;;;;;;;13.35;11.93;;;;;;;-144.99;54.64;52607.09;4995225;28;20678;-72
2022/01/21 11:39:25;;;;;;;12.63;11.35;;;;;;;-144.99;56.12;52627.47;4989211;28;20279;-69
2022/01/21 11:41:56;;;;;;;13.35;11.25;;;;;;;-144.99;57.56;52603.00;4987772;28;20208;-72
2022/01/21 11:44:27;;;;;;;11.43;8.18;;;;;;;-144.99;56.87;52631.53;4974832;28;20238;-64
2022/01/21 11:47:13;;;;;;;11.90;8.02;;;;;;;-144.99;57.06;52635.63;4988169;28;20306;-64
2022/01/21 11:49:42;;;;;;;12.98;9.77;;;;;;;-144.99;57.14;52635.63;4992300;28;20243;-69
2022/01/21 11:52:12;;;;;;;13.13;9.52;;;;;;;-144.99;59.38;52664.16;4991280;28;20742;-69
2022/01/21 11:54:39;;;;;;;12.02;7.90;;;;;;;-144.99;60.19;52631.53;4988411;28;20290;-68
2022/01/21 11:57:08;;;;;;;11.85;8.18;;;;;;;-144.99;60.94;52633.59;4999881;28;20212;-67
2022/01/21 11:59:47;;;;;;;11.50;7.68;;;;;;;-144.99;61.92;52647.84;4999636;28;20205;-70
2022/01/21 12:02:22;;;;;;;10.82;6.97;;;;;;;-144.99;63.16;52639.69;4992124;28;20232;-70
2022/01/21 12:04:50;;;;;;;11.57;7.82;;;;;;;-144.99;65.23;52609.13;4984650;28;20210;-71
2022/01/21 12:07:57;;;;;;;11.50;7.68;;;;;;;-144.99;68.09;52656.00;4992959;28;20226;-70
2022/01/21 12:10:32;;;;;;;12.05;8.88;;;;;;;-144.99;71.04;52680.47;4992364;28;20265;-71
2022/01/21 12:13:06;;;;;;;12.18;8.60;;;;;;;-144.99;72.74;52647.84;4990472;28;20282;-70
2022/01/21 12:19:20;;;;;;;11.80;8.63;;;;;;;-144.99;78.20;52676.38;4966336;28;20309;-70
2022/01/21 12:21:48;;;;;;;10.23;7.13;;;;;;;-144.99;80.08;52641.72;4979692;28;20215;-70
2022/01/21 12:24:16;;;;;;;11.30;8.63;;;;;;;-144.99;80.00;52635.63;4996190;28;20218;-71
2022/01/21 12:26:59;;;;;;;10.18;7.80;;;;;;;-144.99;79.36;52635.63;4999951;28;20208;-70
2022/01/21 12:29:28;;;;;;;10.23;7.70;;;;;;;-144.99;79.61;52637.66;4991016;28;20751;-70
2022/01/21 12:32:07;;;;;;;11.07;8.65;;;;;;;-144.99;79.17;52676.38;4978585;28;20338;-70
2022/01/21 12:35:07;;;;;;;11.00;8.05;;;;;;;-144.99;79.29;52643.78;4990986;28;20619;-72
2022/01/21 12:37:52;;;;;;;10.00;7.00;;;;;;;-144.99;78.56;52680.47;4977812;28;20677;-71
2022/01/21 12:40:33;;;;;;;10.27;7.45;;;;;;;-144.99;78.79;52664.16;4990821;28;20247;-71
2022/01/21 12:43:00;;;;;;;10.15;7.72;;;;;;;-144.99;78.73;52670.28;4988732;28;20234;-71
2022/01/21 12:45:27;;;;;;;8.90;7.65;;;;;;;-144.99;79.90;52631.53;5001360;28;20290;-70
2022/01/21 12:47:55;;;;;;;8.45;6.95;;;;;;;-144.99;81.42;52668.22;4995014;28;20819;-71
2022/01/21 12:50:30;;;;;;;9.07;8.25;;;;;;;-144.99;82.84;52643.78;4990601;28;20223;-71
2022/01/21 12:53:15;;;;;;;10.13;8.27;;;;;;;-144.99;83.64;52656.00;4990119;28;20235;-71
2022/01/21 12:55:58;;;;;;;9.60;6.88;;;;;;;-144.99;83.66;52625.44;4981097;28;20211;-71